Impacts METAR Board INFO
IDs:

KSEA - Seattle-Tacoma Intl, WA, US

Updated at: 1201 UTC 12 Dec 2017
Potential Impact None Slight Moderate High
Time12/00Z 12/01Z 12/02Z 12/03Z 12/04Z 12/05Z 12/06Z 12/07Z 12/08Z 12/09Z 12/10Z 12/11Z 12/12Z
VIS10 10 10 10 10 10 10 10 10 10 10 10 10
CIG-- -- -- -- -- -- -- -- -- -- -- 220 220
CoverFEWFEWFEWCLRCLRFEWFEWFEWSCTSCTCLRBKNBKN
FltCatVFRVFRVFRVFRVFRVFRVFRVFRVFRVFRVFRVFRVFR
WX--------------------------
WDir14020020016014011014013014014001100
WSpd5 3 5 5 5 10 6 9 6 6 0 3 0
WGst-- -- -- -- -- -- -- -- -- -- -- -- --
Raw hourly METARs
KSEA 112353Z 14005KT 10SM FEW250 06/01 A3036 RMK AO2 SLP290 T00610011 10094 20017 50004
KSEA 120053Z 20003KT 10SM FEW250 06/02 A3037 RMK AO2 SLP295 T00560017
KSEA 120153Z 20005KT 10SM FEW250 06/02 A3037 RMK AO2 SLP293 T00560017
KSEA 120253Z 16005KT 10SM CLR 06/00 A3039 RMK AO2 SLP299 T00610000 51010
KSEA 120353Z 14005KT 10SM CLR 05/M02 A3040 RMK AO2 SLP305 T00501017
KSEA 120453Z 11010KT 10SM FEW250 05/M03 A3039 RMK AO2 SLP302 T00501028
KSEA 120553Z 14006KT 10SM FEW250 04/M03 A3041 RMK AO2 SLP309 T00441033 10067 20028 53010
KSEA 120653Z 13009KT 10SM FEW250 04/M04 A3040 RMK AO2 SLP306 T00391044
KSEA 120753Z 14006KT 10SM SCT220 03/M05 A3042 RMK AO2 SLP311 T00331050 400941017
KSEA 120853Z 14006KT 10SM SCT220 04/M04 A3044 RMK AO2 SLP317 T00391044 53009
KSEA 120953Z 00000KT 10SM CLR 02/M04 A3045 RMK AO2 SLP319 T00171039
KSEA 121053Z 11003KT 10SM BKN220 02/M03 A3045 RMK AO2 SLP322 T00221033
KSEA 121153Z 00000KT 10SM BKN220 02/M04 A3044 RMK AO2 SLP318 T00171044 10044 20000 50000 $